sensor_id;sensor_type;location;lat;lon;timestamp;pressure;altitude;pressure_sealevel;temperature;humidity
13867;BME280;7003;46.982;15.248;2022-08-25T00:00:08;97359.41;;;17.27;100.00
13867;BME280;7003;46.982;15.248;2022-08-25T00:02:55;97351.34;;;17.27;100.00
13867;BME280;7003;46.982;15.248;2022-08-25T00:05:28;97352.09;;;17.24;100.00
13867;BME280;7003;46.982;15.248;2022-08-25T00:07:59;97353.84;;;17.43;100.00
13867;BME280;7003;46.982;15.248;2022-08-25T00:10:29;97348.63;;;17.23;100.00
13867;BME280;7003;46.982;15.248;2022-08-25T00:12:59;97346.53;;;17.13;100.00
13867;BME280;7003;46.982;15.248;2022-08-25T00:15:29;97350.84;;;17.18;100.00
13867;BME280;7003;46.982;15.248;2022-08-25T00:17:58;97347.47;;;17.24;100.00
13867;BME280;7003;46.982;15.248;2022-08-25T00:20:30;97353.16;;;17.19;100.00
13867;BME280;7003;46.982;15.248;2022-08-25T00:22:57;97348.28;;;17.28;100.00
13867;BME280;7003;46.982;15.248;2022-08-25T00:25:25;97344.53;;;17.33;100.00
13867;BME280;7003;46.982;15.248;2022-08-25T00:27:52;97342.91;;;17.28;100.00
13867;BME280;7003;46.982;15.248;2022-08-25T00:30:19;97339.31;;;17.17;100.00
13867;BME280;7003;46.982;15.248;2022-08-25T00:32:49;97338.91;;;17.15;100.00
13867;BME280;7003;46.982;15.248;2022-08-25T00:35:19;97336.38;;;17.00;100.00
13867;BME280;7003;46.982;15.248;2022-08-25T00:37:50;97322.88;;;16.70;100.00
13867;BME280;7003;46.982;15.248;2022-08-25T00:40:17;97334.03;;;16.72;100.00
13867;BME280;7003;46.982;15.248;2022-08-25T00:42:48;97337.75;;;16.90;100.00
13867;BME280;7003;46.982;15.248;2022-08-25T00:45:15;97342.78;;;16.91;100.00
13867;BME280;7003;46.982;15.248;2022-08-25T00:47:43;97331.19;;;17.14;100.00
13867;BME280;7003;46.982;15.248;2022-08-25T00:50:12;97332.13;;;16.99;100.00
13867;BME280;7003;46.982;15.248;2022-08-25T00:52:44;97326.34;;;16.97;100.00
13867;BME280;7003;46.982;15.248;2022-08-25T00:55:17;97321.88;;;16.81;100.00
13867;BME280;7003;46.982;15.248;2022-08-25T00:57:52;97315.75;;;17.07;100.00
13867;BME280;7003;46.982;15.248;2022-08-25T01:00:27;97317.91;;;16.98;100.00
13867;BME280;7003;46.982;15.248;2022-08-25T01:02:55;97318.84;;;17.09;100.00
13867;BME280;7003;46.982;15.248;2022-08-25T01:05:25;97316.59;;;16.85;100.00
13867;BME280;7003;46.982;15.248;2022-08-25T01:07:53;97315.97;;;16.95;100.00
13867;BME280;7003;46.982;15.248;2022-08-25T01:10:25;97314.41;;;16.94;100.00
13867;BME280;7003;46.982;15.248;2022-08-25T01:12:59;97308.94;;;16.87;100.00
13867;BME280;7003;46.982;15.248;2022-08-25T01:15:27;97304.94;;;16.77;100.00
13867;BME280;7003;46.982;15.248;2022-08-25T01:17:57;97311.47;;;16.76;100.00
13867;BME280;7003;46.982;15.248;2022-08-25T01:20:28;97304.59;;;16.79;100.00
13867;BME280;7003;46.982;15.248;2022-08-25T01:23:00;97307.88;;;16.69;100.00
13867;BME280;7003;46.982;15.248;2022-08-25T01:25:38;97308.41;;;16.78;100.00
13867;BME280;7003;46.982;15.248;2022-08-25T01:28:09;97311.00;;;16.71;100.00
13867;BME280;7003;46.982;15.248;2022-08-25T01:30:38;97307.78;;;16.88;100.00
13867;BME280;7003;46.982;15.248;2022-08-25T01:33:08;97303.31;;;16.96;100.00
13867;BME280;7003;46.982;15.248;2022-08-25T01:35:37;97299.44;;;16.93;100.00
13867;BME280;7003;46.982;15.248;2022-08-25T01:38:08;97300.91;;;16.90;100.00
13867;BME280;7003;46.982;15.248;2022-08-25T01:40:37;97300.16;;;16.90;100.00
13867;BME280;7003;46.982;15.248;2022-08-25T01:43:11;97296.31;;;16.91;100.00
13867;BME280;7003;46.982;15.248;2022-08-25T01:45:46;97293.53;;;16.84;100.00
13867;BME280;7003;46.982;15.248;2022-08-25T01:48:16;97290.06;;;16.83;100.00
13867;BME280;7003;46.982;15.248;2022-08-25T01:50:47;97289.63;;;16.78;100.00
13867;BME280;7003;46.982;15.248;2022-08-25T01:53:21;97289.56;;;16.74;100.00
13867;BME280;7003;46.982;15.248;2022-08-25T01:55:51;97283.03;;;16.75;100.00
13867;BME280;7003;46.982;15.248;2022-08-25T01:58:28;97285.91;;;16.86;100.00
13867;BME280;7003;46.982;15.248;2022-08-25T02:00:59;97285.63;;;16.95;100.00
13867;BME280;7003;46.982;15.248;2022-08-25T02:03:31;97284.53;;;16.73;100.00
13867;BME280;7003;46.982;15.248;2022-08-25T02:06:01;97283.31;;;16.93;100.00
13867;BME280;7003;46.982;15.248;2022-08-25T02:08:31;97279.78;;;16.89;100.00
13867;BME280;7003;46.982;15.248;2022-08-25T02:10:58;97280.47;;;16.60;100.00
13867;BME280;7003;46.982;15.248;2022-08-25T02:13:30;97281.97;;;16.57;100.00
13867;BME280;7003;46.982;15.248;2022-08-25T02:15:58;97280.19;;;16.65;100.00
13867;BME280;7003;46.982;15.248;2022-08-25T02:18:28;97278.97;;;16.85;100.00
13867;BME280;7003;46.982;15.248;2022-08-25T02:20:55;97268.97;;;16.59;100.00
13867;BME280;7003;46.982;15.248;2022-08-25T02:23:26;97274.63;;;16.77;100.00
13867;BME280;7003;46.982;15.248;2022-08-25T02:25:55;97278.78;;;16.48;100.00
13867;BME280;7003;46.982;15.248;2022-08-25T02:28:27;97279.16;;;16.50;100.00
13867;BME280;7003;46.982;15.248;2022-08-25T02:30:57;97277.22;;;16.47;100.00
13867;BME280;7003;46.982;15.248;2022-08-25T02:33:25;97268.13;;;16.55;100.00
13867;BME280;7003;46.982;15.248;2022-08-25T02:35:57;97268.31;;;16.43;100.00
13867;BME280;7003;46.982;15.248;2022-08-25T02:38:28;97270.59;;;16.41;100.00
13867;BME280;7003;46.982;15.248;2022-08-25T02:40:58;97272.72;;;16.54;100.00
13867;BME280;7003;46.982;15.248;2022-08-25T02:43:28;97274.22;;;16.52;100.00
13867;BME280;7003;46.982;15.248;2022-08-25T02:45:58;97272.13;;;16.42;100.00
13867;BME280;7003;46.982;15.248;2022-08-25T02:48:28;97268.28;;;16.39;100.00
13867;BME280;7003;46.982;15.248;2022-08-25T02:50:59;97265.28;;;16.44;100.00
13867;BME280;7003;46.982;15.248;2022-08-25T02:53:28;97265.94;;;16.61;100.00
13867;BME280;7003;46.982;15.248;2022-08-25T02:55:57;97255.31;;;16.68;100.00
13867;BME280;7003;46.982;15.248;2022-08-25T02:58:24;97258.69;;;16.65;100.00
13867;BME280;7003;46.982;15.248;2022-08-25T03:00:51;97253.19;;;16.58;100.00
13867;BME280;7003;46.982;15.248;2022-08-25T03:03:19;97262.16;;;16.42;100.00
13867;BME280;7003;46.982;15.248;2022-08-25T03:05:50;97258.31;;;16.40;100.00
13867;BME280;7003;46.982;15.248;2022-08-25T03:08:17;97253.94;;;16.54;100.00
13867;BME280;7003;46.982;15.248;2022-08-25T03:10:47;97253.50;;;16.52;100.00
13867;BME280;7003;46.982;15.248;2022-08-25T03:13:16;97255.19;;;16.61;100.00
13867;BME280;7003;46.982;15.248;2022-08-25T03:15:44;97250.94;;;16.60;100.00
13867;BME280;7003;46.982;15.248;2022-08-25T03:18:16;97249.13;;;16.64;100.00
13867;BME280;7003;46.982;15.248;2022-08-25T03:20:43;97246.19;;;16.72;100.00
13867;BME280;7003;46.982;15.248;2022-08-25T03:23:11;97242.34;;;16.50;100.00
13867;BME280;7003;46.982;15.248;2022-08-25T03:25:41;97239.91;;;16.65;100.00
13867;BME280;7003;46.982;15.248;2022-08-25T03:28:27;97238.97;;;16.53;100.00
13867;BME280;7003;46.982;15.248;2022-08-25T03:30:58;97242.56;;;16.38;100.00
13867;BME280;7003;46.982;15.248;2022-08-25T03:33:28;97245.66;;;16.40;100.00
13867;BME280;7003;46.982;15.248;2022-08-25T03:35:56;97240.28;;;16.40;100.00
13867;BME280;7003;46.982;15.248;2022-08-25T03:38:24;97249.78;;;16.34;100.00
13867;BME280;7003;46.982;15.248;2022-08-25T03:40:54;97243.34;;;16.39;100.00
13867;BME280;7003;46.982;15.248;2022-08-25T03:43:24;97244.81;;;16.36;100.00
13867;BME280;7003;46.982;15.248;2022-08-25T03:45:53;97244.16;;;16.43;100.00
13867;BME280;7003;46.982;15.248;2022-08-25T03:48:21;97242.78;;;16.52;100.00
13867;BME280;7003;46.982;15.248;2022-08-25T03:50:53;97243.75;;;16.64;100.00
13867;BME280;7003;46.982;15.248;2022-08-25T03:53:22;97236.97;;;16.50;100.00
13867;BME280;7003;46.982;15.248;2022-08-25T03:55:52;97236.69;;;16.55;100.00
13867;BME280;7003;46.982;15.248;2022-08-25T03:58:34;97232.03;;;16.52;100.00
13867;BME280;7003;46.982;15.248;2022-08-25T04:01:06;97244.56;;;16.68;100.00
13867;BME280;7003;46.982;15.248;2022-08-25T04:03:37;97229.34;;;16.52;100.00
13867;BME280;7003;46.982;15.248;2022-08-25T04:06:10;97233.78;;;16.64;100.00
13867;BME280;7003;46.982;15.248;2022-08-25T04:08:44;97236.41;;;16.61;100.00
13867;BME280;7003;46.982;15.248;2022-08-25T04:11:19;97239.78;;;16.58;100.00
13867;BME280;7003;46.982;15.248;2022-08-25T04:13:52;97236.09;;;16.66;100.00
13867;BME280;7003;46.982;15.248;2022-08-25T04:16:25;97236.41;;;16.61;100.00
13867;BME280;7003;46.982;15.248;2022-08-25T04:19:02;97232.50;;;16.58;100.00
13867;BME280;7003;46.982;15.248;2022-08-25T04:21:35;97228.34;;;16.61;100.00
13867;BME280;7003;46.982;15.248;2022-08-25T04:24:09;97235.81;;;16.74;100.00
13867;BME280;7003;46.982;15.248;2022-08-25T04:26:42;97227.22;;;16.62;100.00
13867;BME280;7003;46.982;15.248;2022-08-25T04:29:12;97230.00;;;16.69;100.00
13867;BME280;7003;46.982;15.248;2022-08-25T04:31:46;97235.06;;;16.51;100.00
13867;BME280;7003;46.982;15.248;2022-08-25T04:34:16;97236.97;;;16.50;100.00
13867;BME280;7003;46.982;15.248;2022-08-25T04:36:46;97235.38;;;16.69;100.00
13867;BME280;7003;46.982;15.248;2022-08-25T04:39:17;97235.78;;;16.71;100.00
13867;BME280;7003;46.982;15.248;2022-08-25T04:41:49;97238.56;;;16.78;100.00
13867;BME280;7003;46.982;15.248;2022-08-25T04:44:19;97246.13;;;16.69;100.00
13867;BME280;7003;46.982;15.248;2022-08-25T04:46:51;97248.47;;;16.74;100.00
13867;BME280;7003;46.982;15.248;2022-08-25T04:49:20;97247.06;;;16.80;100.00
13867;BME280;7003;46.982;15.248;2022-08-25T04:51:52;97249.00;;;16.83;100.00
13867;BME280;7003;46.982;15.248;2022-08-25T04:54:26;97260.50;;;16.80;100.00
13867;BME280;7003;46.982;15.248;2022-08-25T04:56:55;97256.81;;;16.91;100.00
13867;BME280;7003;46.982;15.248;2022-08-25T04:59:28;97258.63;;;16.84;100.00
13867;BME280;7003;46.982;15.248;2022-08-25T05:02:04;97257.47;;;16.85;100.00
13867;BME280;7003;46.982;15.248;2022-08-25T05:04:36;97267.81;;;16.83;100.00
13867;BME280;7003;46.982;15.248;2022-08-25T05:07:05;97268.66;;;16.87;100.00
13867;BME280;7003;46.982;15.248;2022-08-25T05:09:35;97261.31;;;16.84;100.00
13867;BME280;7003;46.982;15.248;2022-08-25T05:12:04;97267.22;;;16.97;100.00
13867;BME280;7003;46.982;15.248;2022-08-25T05:14:33;97262.16;;;17.18;100.00
13867;BME280;7003;46.982;15.248;2022-08-25T05:17:03;97262.41;;;17.09;100.00
13867;BME280;7003;46.982;15.248;2022-08-25T05:19:32;97266.41;;;17.22;100.00
13867;BME280;7003;46.982;15.248;2022-08-25T05:22:04;97260.94;;;17.45;100.00
13867;BME280;7003;46.982;15.248;2022-08-25T05:24:33;97267.28;;;17.30;100.00
13867;BME280;7003;46.982;15.248;2022-08-25T05:27:02;97270.81;;;17.34;100.00
13867;BME280;7003;46.982;15.248;2022-08-25T05:29:32;97279.25;;;17.36;100.00
13867;BME280;7003;46.982;15.248;2022-08-25T05:32:04;97272.72;;;17.63;100.00
13867;BME280;7003;46.982;15.248;2022-08-25T05:34:37;97265.22;;;17.80;100.00
13867;BME280;7003;46.982;15.248;2022-08-25T05:37:08;97270.47;;;17.69;100.00
13867;BME280;7003;46.982;15.248;2022-08-25T05:39:41;97265.16;;;17.76;100.00
13867;BME280;7003;46.982;15.248;2022-08-25T05:42:11;97268.56;;;17.73;100.00
13867;BME280;7003;46.982;15.248;2022-08-25T05:44:44;97261.97;;;17.67;100.00
13867;BME280;7003;46.982;15.248;2022-08-25T05:47:19;97270.91;;;17.75;100.00
13867;BME280;7003;46.982;15.248;2022-08-25T05:49:48;97269.41;;;17.77;100.00
13867;BME280;7003;46.982;15.248;2022-08-25T05:52:17;97275.19;;;17.79;100.00
13867;BME280;7003;46.982;15.248;2022-08-25T05:54:51;97277.63;;;17.91;100.00
13867;BME280;7003;46.982;15.248;2022-08-25T05:57:20;97273.91;;;18.06;100.00
13867;BME280;7003;46.982;15.248;2022-08-25T05:59:49;97272.44;;;18.13;100.00
13867;BME280;7003;46.982;15.248;2022-08-25T06:02:23;97276.94;;;18.01;100.00
13867;BME280;7003;46.982;15.248;2022-08-25T06:05:14;97286.28;;;18.11;100.00
13867;BME280;7003;46.982;15.248;2022-08-25T06:07:46;97275.66;;;18.29;100.00
13867;BME280;7003;46.982;15.248;2022-08-25T06:10:18;97282.72;;;18.44;100.00
13867;BME280;7003;46.982;15.248;2022-08-25T06:12:50;97278.69;;;18.68;100.00
13867;BME280;7003;46.982;15.248;2022-08-25T06:15:21;97275.78;;;18.94;100.00
13867;BME280;7003;46.982;15.248;2022-08-25T06:17:53;97282.47;;;19.18;100.00
13867;BME280;7003;46.982;15.248;2022-08-25T06:20:25;97282.53;;;19.36;100.00
13867;BME280;7003;46.982;15.248;2022-08-25T06:22:57;97285.34;;;19.53;100.00
13867;BME280;7003;46.982;15.248;2022-08-25T06:25:26;97290.47;;;19.80;100.00
13867;BME280;7003;46.982;15.248;2022-08-25T06:27:57;97290.16;;;20.10;100.00
13867;BME280;7003;46.982;15.248;2022-08-25T06:30:28;97297.84;;;19.97;100.00
13867;BME280;7003;46.982;15.248;2022-08-25T06:32:57;97290.53;;;20.08;100.00
13867;BME280;7003;46.982;15.248;2022-08-25T06:35:29;97292.09;;;20.20;100.00
13867;BME280;7003;46.982;15.248;2022-08-25T06:37:57;97296.34;;;20.24;100.00
13867;BME280;7003;46.982;15.248;2022-08-25T06:40:25;97292.91;;;20.34;100.00
13867;BME280;7003;46.982;15.248;2022-08-25T06:42:53;97289.81;;;20.40;100.00
13867;BME280;7003;46.982;15.248;2022-08-25T06:45:21;97295.59;;;20.27;100.00
13867;BME280;7003;46.982;15.248;2022-08-25T06:47:49;97286.69;;;20.23;100.00
13867;BME280;7003;46.982;15.248;2022-08-25T06:50:19;97287.91;;;20.40;100.00
13867;BME280;7003;46.982;15.248;2022-08-25T06:52:47;97295.59;;;20.27;100.00
13867;BME280;7003;46.982;15.248;2022-08-25T06:55:17;97298.28;;;20.27;100.00
13867;BME280;7003;46.982;15.248;2022-08-25T06:57:51;97292.47;;;20.18;100.00
13867;BME280;7003;46.982;15.248;2022-08-25T07:00:21;97289.78;;;20.22;100.00
13867;BME280;7003;46.982;15.248;2022-08-25T07:02:52;97290.53;;;20.05;100.00
13867;BME280;7003;46.982;15.248;2022-08-25T07:05:24;97288.22;;;20.10;100.00
13867;BME280;7003;46.982;15.248;2022-08-25T07:07:55;97291.69;;;20.21;100.00
13867;BME280;7003;46.982;15.248;2022-08-25T07:10:23;97289.84;;;20.36;100.00
13867;BME280;7003;46.982;15.248;2022-08-25T07:12:51;97294.84;;;20.41;100.00
13867;BME280;7003;46.982;15.248;2022-08-25T07:15:18;97301.03;;;20.63;100.00
13867;BME280;7003;46.982;15.248;2022-08-25T07:17:48;97301.38;;;20.97;100.00
13867;BME280;7003;46.982;15.248;2022-08-25T07:20:18;97296.75;;;21.04;100.00
13867;BME280;7003;46.982;15.248;2022-08-25T07:22:48;97302.91;;;21.19;100.00
13867;BME280;7003;46.982;15.248;2022-08-25T07:25:15;97299.06;;;21.20;100.00
13867;BME280;7003;46.982;15.248;2022-08-25T07:27:44;97317.94;;;21.31;100.00
13867;BME280;7003;46.982;15.248;2022-08-25T07:30:12;97313.72;;;21.19;100.00
13867;BME280;7003;46.982;15.248;2022-08-25T07:32:39;97316.81;;;21.28;100.00
13867;BME280;7003;46.982;15.248;2022-08-25T07:35:07;97309.81;;;21.41;100.00
13867;BME280;7003;46.982;15.248;2022-08-25T07:37:44;97312.53;;;21.31;100.00
13867;BME280;7003;46.982;15.248;2022-08-25T07:40:18;97305.94;;;21.39;100.00
13867;BME280;7003;46.982;15.248;2022-08-25T07:42:48;97310.56;;;21.42;100.00
13867;BME280;7003;46.982;15.248;2022-08-25T07:45:17;97312.06;;;21.57;100.00
13867;BME280;7003;46.982;15.248;2022-08-25T07:47:47;97308.56;;;21.64;100.00
13867;BME280;7003;46.982;15.248;2022-08-25T07:50:17;97312.03;;;21.64;100.00
13867;BME280;7003;46.982;15.248;2022-08-25T07:52:47;97313.16;;;21.74;100.00
13867;BME280;7003;46.982;15.248;2022-08-25T07:55:17;97307.34;;;21.79;100.00
13867;BME280;7003;46.982;15.248;2022-08-25T07:57:47;97312.75;;;21.82;100.00
13867;BME280;7003;46.982;15.248;2022-08-25T08:00:15;97312.84;;;21.58;100.00
13867;BME280;7003;46.982;15.248;2022-08-25T08:02:44;97316.75;;;21.46;100.00
13867;BME280;7003;46.982;15.248;2022-08-25T08:05:13;97315.50;;;21.68;100.00
13867;BME280;7003;46.982;15.248;2022-08-25T08:07:41;97312.78;;;21.72;100.00
13867;BME280;7003;46.982;15.248;2022-08-25T08:10:10;97316.63;;;21.81;100.00
13867;BME280;7003;46.982;15.248;2022-08-25T08:12:45;97315.75;;;22.06;100.00
13867;BME280;7003;46.982;15.248;2022-08-25T08:15:14;97314.84;;;22.23;100.00
13867;BME280;7003;46.982;15.248;2022-08-25T08:17:42;97321.94;;;22.06;100.00
13867;BME280;7003;46.982;15.248;2022-08-25T08:20:10;97330.06;;;21.96;100.00
13867;BME280;7003;46.982;15.248;2022-08-25T08:22:40;97322.69;;;22.07;100.00
13867;BME280;7003;46.982;15.248;2022-08-25T08:25:10;97324.19;;;22.15;100.00
13867;BME280;7003;46.982;15.248;2022-08-25T08:27:37;97325.03;;;22.05;100.00
13867;BME280;7003;46.982;15.248;2022-08-25T08:30:16;97329.66;;;22.08;100.00
13867;BME280;7003;46.982;15.248;2022-08-25T08:32:46;97332.72;;;22.10;100.00
13867;BME280;7003;46.982;15.248;2022-08-25T08:35:15;97328.09;;;22.07;100.00
13867;BME280;7003;46.982;15.248;2022-08-25T08:37:44;97328.78;;;22.25;100.00
13867;BME280;7003;46.982;15.248;2022-08-25T08:40:14;97328.31;;;22.37;100.00
13867;BME280;7003;46.982;15.248;2022-08-25T08:42:51;97332.59;;;22.35;100.00
13867;BME280;7003;46.982;15.248;2022-08-25T08:45:31;97331.13;;;22.19;100.00
13867;BME280;7003;46.982;15.248;2022-08-25T08:48:27;97325.47;;;22.55;100.00
13867;BME280;7003;46.982;15.248;2022-08-25T08:51:03;97322.41;;;22.49;100.00
13867;BME280;7003;46.982;15.248;2022-08-25T08:53:40;97319.63;;;22.60;100.00
13867;BME280;7003;46.982;15.248;2022-08-25T08:56:13;97316.78;;;22.78;100.00
13867;BME280;7003;46.982;15.248;2022-08-25T08:58:47;97322.44;;;22.46;100.00
13867;BME280;7003;46.982;15.248;2022-08-25T09:01:24;97317.81;;;22.43;100.00
13867;BME280;7003;46.982;15.248;2022-08-25T09:03:57;97323.56;;;22.52;100.00
13867;BME280;7003;46.982;15.248;2022-08-25T09:06:31;97319.09;;;22.79;100.00
13867;BME280;7003;46.982;15.248;2022-08-25T09:09:04;97315.94;;;22.88;100.00
13867;BME280;7003;46.982;15.248;2022-08-25T09:11:45;97318.13;;;23.00;100.00
13867;BME280;7003;46.982;15.248;2022-08-25T09:14:30;97318.28;;;22.86;100.00
13867;BME280;7003;46.982;15.248;2022-08-25T09:17:13;97322.97;;;22.82;100.00
13867;BME280;7003;46.982;15.248;2022-08-25T09:20:28;97322.84;;;22.92;100.00
13867;BME280;7003;46.982;15.248;2022-08-25T09:23:02;97312.75;;;22.96;100.00
13867;BME280;7003;46.982;15.248;2022-08-25T09:25:43;97318.25;;;22.89;100.00
13867;BME280;7003;46.982;15.248;2022-08-25T09:28:19;97311.53;;;23.01;100.00
13867;BME280;7003;46.982;15.248;2022-08-25T09:30:53;97314.47;;;23.17;100.00
13867;BME280;7003;46.982;15.248;2022-08-25T09:33:26;97310.31;;;23.09;100.00
13867;BME280;7003;46.982;15.248;2022-08-25T09:35:55;97313.38;;;23.15;100.00
13867;BME280;7003;46.982;15.248;2022-08-25T09:38:27;97311.41;;;23.15;100.00
13867;BME280;7003;46.982;15.248;2022-08-25T09:40:59;97314.09;;;23.15;100.00
13867;BME280;7003;46.982;15.248;2022-08-25T09:43:32;97312.94;;;23.16;100.00
13867;BME280;7003;46.982;15.248;2022-08-25T09:46:02;97299.97;;;23.34;100.00
13867;BME280;7003;46.982;15.248;2022-08-25T09:48:45;97301.63;;;23.25;100.00
13867;BME280;7003;46.982;15.248;2022-08-25T09:51:18;97294.50;;;23.38;100.00
13867;BME280;7003;46.982;15.248;2022-08-25T09:53:51;97296.16;;;23.28;100.00
13867;BME280;7003;46.982;15.248;2022-08-25T09:56:21;97295.38;;;23.28;100.00
13867;BME280;7003;46.982;15.248;2022-08-25T09:58:52;97300.91;;;23.55;100.00
13867;BME280;7003;46.982;15.248;2022-08-25T10:01:23;97296.69;;;23.54;100.00
13867;BME280;7003;46.982;15.248;2022-08-25T10:04:00;97293.75;;;23.34;100.00
13867;BME280;7003;46.982;15.248;2022-08-25T10:06:34;97290.25;;;23.71;100.00
13867;BME280;7003;46.982;15.248;2022-08-25T10:09:07;97291.69;;;23.79;100.00
13867;BME280;7003;46.982;15.248;2022-08-25T10:11:39;97290.88;;;23.82;100.00
13867;BME280;7003;46.982;15.248;2022-08-25T10:14:16;97280.53;;;24.00;100.00
13867;BME280;7003;46.982;15.248;2022-08-25T10:16:46;97282.59;;;24.20;100.00
13867;BME280;7003;46.982;15.248;2022-08-25T10:19:24;97291.31;;;24.61;100.00
13867;BME280;7003;46.982;15.248;2022-08-25T10:22:05;97279.47;;;24.71;100.00
13867;BME280;7003;46.982;15.248;2022-08-25T10:24:34;97274.16;;;24.64;100.00
13867;BME280;7003;46.982;15.248;2022-08-25T10:27:13;97278.69;;;24.71;100.00
13867;BME280;7003;46.982;15.248;2022-08-25T10:30:07;97266.81;;;24.84;100.00
13867;BME280;7003;46.982;15.248;2022-08-25T10:33:01;97262.81;;;24.92;100.00
13867;BME280;7003;46.982;15.248;2022-08-25T10:35:49;97262.81;;;24.69;100.00
13867;BME280;7003;46.982;15.248;2022-08-25T10:38:34;97262.16;;;24.38;100.00
13867;BME280;7003;46.982;15.248;2022-08-25T10:41:19;97266.66;;;23.95;100.00
13867;BME280;7003;46.982;15.248;2022-08-25T10:44:00;97262.75;;;23.69;100.00
13867;BME280;7003;46.982;15.248;2022-08-25T10:47:10;97260.22;;;24.08;100.00
13867;BME280;7003;46.982;15.248;2022-08-25T10:49:46;97255.94;;;24.38;100.00
13867;BME280;7003;46.982;15.248;2022-08-25T10:52:19;97253.63;;;24.36;100.00
13867;BME280;7003;46.982;15.248;2022-08-25T10:54:57;97253.81;;;24.49;100.00
13867;BME280;7003;46.982;15.248;2022-08-25T10:57:34;97248.63;;;24.58;100.00
13867;BME280;7003;46.982;15.248;2022-08-25T11:00:11;97243.41;;;24.21;100.00
13867;BME280;7003;46.982;15.248;2022-08-25T11:03:08;97242.16;;;24.25;100.00
13867;BME280;7003;46.982;15.248;2022-08-25T11:05:40;97241.53;;;24.14;100.00
13867;BME280;7003;46.982;15.248;2022-08-25T11:08:15;97246.56;;;24.15;100.00
13867;BME280;7003;46.982;15.248;2022-08-25T11:10:50;97239.84;;;23.97;100.00
13867;BME280;7003;46.982;15.248;2022-08-25T11:13:25;97244.94;;;24.22;100.00
13867;BME280;7003;46.982;15.248;2022-08-25T11:16:00;97236.81;;;24.18;100.00
13867;BME280;7003;46.982;15.248;2022-08-25T11:18:32;97228.34;;;24.12;100.00
13867;BME280;7003;46.982;15.248;2022-08-25T11:21:05;97220.06;;;24.46;100.00
13867;BME280;7003;46.982;15.248;2022-08-25T11:23:39;97223.25;;;24.41;100.00
13867;BME280;7003;46.982;15.248;2022-08-25T11:26:10;97221.19;;;24.49;100.00
13867;BME280;7003;46.982;15.248;2022-08-25T11:28:49;97213.38;;;24.28;100.00
13867;BME280;7003;46.982;15.248;2022-08-25T11:31:23;97207.22;;;24.24;100.00
13867;BME280;7003;46.982;15.248;2022-08-25T11:33:55;97197.78;;;24.32;100.00
13867;BME280;7003;46.982;15.248;2022-08-25T11:36:29;97190.16;;;24.46;100.00
13867;BME280;7003;46.982;15.248;2022-08-25T11:39:11;97198.94;;;24.77;100.00
13867;BME280;7003;46.982;15.248;2022-08-25T11:41:52;97197.09;;;25.14;100.00
13867;BME280;7003;46.982;15.248;2022-08-25T11:44:50;97186.38;;;25.62;100.00
13867;BME280;7003;46.982;15.248;2022-08-25T11:47:38;97186.03;;;25.60;100.00
13867;BME280;7003;46.982;15.248;2022-08-25T11:50:25;97168.97;;;25.56;100.00
13867;BME280;7003;46.982;15.248;2022-08-25T11:53:02;97179.34;;;25.81;100.00
13867;BME280;7003;46.982;15.248;2022-08-25T11:55:50;97185.38;;;25.89;100.00
13867;BME280;7003;46.982;15.248;2022-08-25T11:58:42;97181.97;;;25.68;100.00
13867;BME280;7003;46.982;15.248;2022-08-25T12:04:34;97175.84;;;26.13;100.00
13867;BME280;7003;46.982;15.248;2022-08-25T12:07:19;97172.53;;;26.83;100.00
13867;BME280;7003;46.982;15.248;2022-08-25T12:10:13;97174.75;;;26.72;100.00
13867;BME280;7003;46.982;15.248;2022-08-25T12:16:00;97174.13;;;27.51;100.00
13867;BME280;7003;46.982;15.248;2022-08-25T12:18:42;97170.63;;;28.14;100.00
13867;BME280;7003;46.982;15.248;2022-08-25T12:21:14;97167.06;;;28.51;100.00
13867;BME280;7003;46.982;15.248;2022-08-25T12:23:45;97177.00;;;28.58;100.00
13867;BME280;7003;46.982;15.248;2022-08-25T12:26:38;97166.94;;;28.89;100.00
13867;BME280;7003;46.982;15.248;2022-08-25T12:29:13;97174.25;;;28.92;100.00
13867;BME280;7003;46.982;15.248;2022-08-25T12:31:56;97171.41;;;28.61;100.00
13867;BME280;7003;46.982;15.248;2022-08-25T12:34:45;97175.09;;;28.67;100.00
13867;BME280;7003;46.982;15.248;2022-08-25T12:37:19;97174.00;;;28.78;100.00
13867;BME280;7003;46.982;15.248;2022-08-25T12:39:56;97162.78;;;28.50;100.00
13867;BME280;7003;46.982;15.248;2022-08-25T12:42:31;97164.66;;;28.75;100.00
13867;BME280;7003;46.982;15.248;2022-08-25T12:51:06;97149.09;;;29.06;100.00
13867;BME280;7003;46.982;15.248;2022-08-25T12:53:38;97148.75;;;28.95;100.00
13867;BME280;7003;46.982;15.248;2022-08-25T12:56:18;97146.75;;;29.39;100.00
13867;BME280;7003;46.982;15.248;2022-08-25T12:58:54;97152.56;;;28.29;100.00
13867;BME280;7003;46.982;15.248;2022-08-25T13:01:32;97148.56;;;28.55;100.00
13867;BME280;7003;46.982;15.248;2022-08-25T13:04:22;97140.09;;;28.28;100.00
13867;BME280;7003;46.982;15.248;2022-08-25T13:07:09;97134.16;;;29.29;100.00
13867;BME280;7003;46.982;15.248;2022-08-25T13:12:49;97121.38;;;30.06;96.11
13867;BME280;7003;46.982;15.248;2022-08-25T13:15:32;97121.84;;;30.14;94.96
13867;BME280;7003;46.982;15.248;2022-08-25T13:18:18;97118.53;;;30.19;80.45
13867;BME280;7003;46.982;15.248;2022-08-25T13:20:50;97115.16;;;30.24;77.94
13867;BME280;7003;46.982;15.248;2022-08-25T13:23:25;97115.59;;;30.13;64.58
13867;BME280;7003;46.982;15.248;2022-08-25T13:25:53;97111.25;;;29.76;68.24
13867;BME280;7003;46.982;15.248;2022-08-25T13:28:28;97108.59;;;29.94;72.89
13867;BME280;7003;46.982;15.248;2022-08-25T13:30:58;97105.84;;;30.12;68.76
13867;BME280;7003;46.982;15.248;2022-08-25T13:33:26;97100.53;;;30.18;66.12
13867;BME280;7003;46.982;15.248;2022-08-25T13:35:59;97103.72;;;30.07;69.65